createdAt,value
2019-02-23T00:02:22.692Z,73.46
2019-02-23T00:04:50.460Z,73.52
2019-02-23T00:07:18.256Z,73.85
2019-02-23T00:09:46.044Z,73.72
2019-02-23T00:12:13.836Z,73.31
2019-02-23T00:14:41.647Z,73.21
2019-02-23T00:17:09.491Z,72.36
2019-02-23T00:19:37.267Z,72.06
2019-02-23T00:22:05.048Z,72.25
2019-02-23T00:24:32.785Z,72.09
2019-02-23T00:27:00.576Z,71.87
2019-02-23T00:29:28.315Z,71.82
2019-02-23T00:31:56.432Z,71.78
2019-02-23T00:34:24.146Z,71.41
2019-02-23T00:36:51.903Z,71.59
2019-02-23T00:39:19.691Z,71.73
2019-02-23T00:41:47.409Z,71.80
2019-02-23T00:44:15.174Z,71.95
2019-02-23T00:46:42.915Z,72.02
2019-02-23T00:49:10.703Z,71.85
2019-02-23T00:51:38.426Z,72.07
2019-02-23T00:54:06.220Z,72.23
2019-02-23T00:56:33.973Z,72.34
2019-02-23T00:59:01.739Z,71.84
2019-02-23T01:01:29.491Z,71.53
2019-02-23T01:03:57.255Z,70.77
2019-02-23T01:06:25.034Z,70.34
2019-02-23T01:08:52.834Z,70.10
2019-02-23T01:11:20.589Z,70.43
2019-02-23T01:13:48.343Z,69.99
2019-02-23T01:16:16.076Z,69.76
2019-02-23T01:18:43.875Z,69.64
2019-02-23T01:21:11.618Z,69.46
2019-02-23T01:23:39.368Z,69.08
2019-02-23T01:26:07.263Z,68.85
2019-02-23T01:28:35.005Z,68.83
2019-02-23T01:31:02.787Z,68.89
2019-02-23T01:33:30.573Z,69.03
2019-02-23T01:35:58.314Z,69.29
2019-02-23T01:38:26.097Z,69.38
2019-02-23T01:40:53.869Z,69.92
2019-02-23T01:43:21.730Z,70.29
2019-02-23T01:45:49.515Z,69.88
2019-02-23T01:48:17.254Z,70.56
2019-02-23T01:50:44.985Z,70.78
2019-02-23T01:53:12.771Z,71.01
2019-02-23T01:55:40.546Z,70.96
2019-02-23T01:58:08.308Z,70.99
2019-02-23T02:00:38.203Z,71.48
2019-02-23T02:03:05.926Z,71.27
2019-02-23T02:05:33.828Z,70.70
2019-02-23T02:08:01.580Z,70.36
2019-02-23T02:10:29.566Z,70.50
2019-02-23T02:12:57.317Z,70.29
2019-02-23T02:15:25.054Z,70.05
2019-02-23T02:17:52.782Z,69.43
2019-02-23T02:20:20.542Z,69.11
2019-02-23T02:22:48.361Z,68.98
2019-02-23T02:25:16.121Z,68.84
2019-02-23T02:27:43.883Z,69.51
2019-02-23T02:30:11.942Z,69.79
2019-02-23T02:32:39.702Z,69.63
2019-02-23T02:35:08.812Z,70.08
2019-02-23T02:37:36.564Z,70.48
2019-02-23T02:40:05.141Z,70.84
2019-02-23T02:42:32.869Z,71.18
2019-02-23T02:45:00.605Z,71.13
2019-02-23T02:47:28.373Z,71.22
2019-02-23T02:49:56.128Z,71.44
2019-02-23T02:52:23.953Z,72.06
2019-02-23T02:54:51.792Z,71.58
2019-02-23T02:57:19.583Z,71.58
2019-02-23T02:59:47.337Z,71.73
2019-02-23T03:02:15.128Z,71.56
2019-02-23T03:04:42.962Z,71.40
2019-02-23T03:07:10.793Z,71.72
2019-02-23T03:09:38.557Z,72.12
2019-02-23T03:12:06.353Z,72.06
2019-02-23T03:14:34.060Z,71.91
2019-02-23T03:17:01.818Z,72.38
2019-02-23T03:19:29.562Z,72.45
2019-02-23T03:22:00.341Z,72.14
2019-02-23T03:24:28.152Z,72.52
2019-02-23T03:26:55.889Z,73.28
2019-02-23T03:29:23.628Z,73.39
2019-02-23T03:31:51.411Z,73.74
2019-02-23T03:34:19.163Z,73.46
2019-02-23T03:36:46.887Z,73.70
2019-02-23T03:39:14.679Z,73.53
2019-02-23T03:41:42.414Z,73.27
2019-02-23T03:44:10.175Z,73.33
2019-02-23T03:46:37.938Z,73.38
2019-02-23T03:49:06.071Z,73.03
2019-02-23T03:51:33.834Z,73.32
2019-02-23T03:54:01.546Z,73.47
2019-02-23T03:56:29.326Z,73.51
2019-02-23T03:58:59.938Z,73.94
2019-02-23T04:01:27.712Z,74.05
2019-02-23T04:03:55.473Z,73.99
2019-02-23T04:06:23.330Z,74.28
2019-02-23T04:08:51.112Z,74.11
2019-02-23T04:11:18.905Z,73.51
2019-02-23T04:13:46.672Z,73.67
2019-02-23T04:16:14.427Z,73.29
2019-02-23T04:18:42.188Z,72.74
2019-02-23T04:21:09.924Z,73.36
2019-02-23T04:23:37.709Z,73.71
2019-02-23T04:26:05.464Z,73.58
2019-02-23T04:28:33.213Z,74.08
2019-02-23T04:31:00.983Z,74.12
2019-02-23T04:33:28.942Z,73.94
2019-02-23T04:35:56.661Z,74.30
2019-02-23T04:38:24.402Z,74.35
2019-02-23T04:40:52.295Z,74.00
2019-02-23T04:43:20.049Z,74.24
2019-02-23T04:45:47.989Z,74.51
2019-02-23T04:48:15.787Z,74.20
2019-02-23T04:50:43.533Z,74.27
2019-02-23T04:53:11.321Z,74.39
2019-02-23T04:55:39.054Z,74.26
2019-02-23T04:58:06.828Z,73.97
2019-02-23T05:00:34.671Z,73.92
2019-02-23T05:03:02.450Z,73.89
2019-02-23T05:05:30.190Z,74.24
2019-02-23T05:07:57.941Z,74.11
2019-02-23T05:10:25.922Z,74.33
2019-02-23T05:12:53.696Z,74.69
2019-02-23T05:15:21.456Z,74.38
2019-02-23T05:17:49.218Z,73.77
2019-02-23T05:20:16.948Z,73.81
2019-02-23T05:22:44.690Z,74.05
2019-02-23T05:25:12.432Z,74.07
2019-02-23T05:27:40.193Z,74.54
2019-02-23T05:30:08.948Z,74.56
2019-02-23T05:32:36.709Z,74.26
2019-02-23T05:35:05.209Z,74.31
2019-02-23T05:37:32.943Z,74.42
2019-02-23T05:40:00.723Z,74.72
2019-02-23T05:42:28.491Z,75.07
2019-02-23T05:44:56.264Z,75.12
2019-02-23T05:47:24.036Z,74.55
2019-02-23T05:49:51.834Z,74.80
2019-02-23T05:52:19.590Z,74.87
2019-02-23T05:54:47.363Z,74.39
2019-02-23T05:57:15.138Z,74.31
2019-02-23T05:59:43.151Z,74.63
2019-02-23T06:02:11.012Z,74.61
2019-02-23T06:04:38.853Z,73.99
2019-02-23T06:07:06.631Z,74.11
2019-02-23T06:09:34.426Z,73.88
2019-02-23T06:12:02.216Z,73.89
2019-02-23T06:14:29.970Z,74.06
2019-02-23T06:16:57.756Z,74.43
2019-02-23T06:19:25.574Z,74.08
2019-02-23T06:21:54.540Z,74.25
2019-02-23T06:24:22.538Z,74.55
2019-02-23T06:26:50.336Z,74.87
2019-02-23T06:29:18.103Z,74.49
2019-02-23T06:31:45.891Z,74.19
2019-02-23T06:34:16.513Z,74.33
2019-02-23T06:36:43.284Z,73.60
2019-02-23T06:39:11.019Z,74.71
2019-02-23T06:41:38.811Z,74.53
2019-02-23T06:44:06.547Z,74.10
2019-02-23T06:46:34.319Z,73.72
2019-02-23T06:49:02.069Z,73.45
2019-02-23T06:51:29.865Z,73.25
2019-02-23T06:53:57.627Z,73.29
2019-02-23T06:56:25.418Z,72.44
2019-02-23T06:58:53.205Z,72.19
2019-02-23T07:01:20.979Z,72.74
2019-02-23T07:03:48.691Z,71.70
2019-02-23T07:06:16.499Z,71.49
2019-02-23T07:08:44.511Z,71.33
2019-02-23T07:11:12.295Z,70.90
2019-02-23T07:13:40.065Z,70.08
2019-02-23T07:16:07.863Z,70.05
2019-02-23T07:18:35.629Z,70.25
2019-02-23T07:21:03.380Z,69.84
2019-02-23T07:23:31.113Z,69.37
2019-02-23T07:25:58.860Z,69.72
2019-02-23T07:28:26.609Z,69.74
2019-02-23T07:30:54.365Z,70.91
2019-02-23T07:33:32.328Z,70.50
2019-02-23T07:35:51.781Z,71.41
2019-02-23T07:38:19.537Z,70.04
2019-02-23T07:40:47.287Z,69.19
2019-02-23T07:43:15.039Z,68.40
2019-02-23T07:45:42.816Z,67.91
2019-02-23T07:48:10.565Z,67.73
2019-02-23T07:50:38.331Z,67.69
2019-02-23T07:53:06.098Z,67.51
2019-02-23T07:55:33.846Z,67.41
2019-02-23T07:58:01.636Z,67.50
2019-02-23T08:00:29.408Z,66.69
2019-02-23T08:02:57.204Z,66.56
2019-02-23T08:05:25.025Z,66.80
2019-02-23T08:07:52.810Z,66.56
2019-02-23T08:10:20.568Z,66.37
2019-02-23T08:12:48.365Z,66.80
2019-02-23T08:15:16.099Z,66.33
2019-02-23T08:17:43.925Z,66.61
2019-02-23T08:20:11.761Z,66.34
2019-02-23T08:22:39.567Z,65.95
2019-02-23T08:25:07.627Z,65.87
2019-02-23T08:27:35.389Z,65.50
2019-02-23T08:30:03.540Z,65.42
2019-02-23T08:32:31.327Z,65.93
2019-02-23T08:34:59.146Z,66.66
2019-02-23T08:37:26.939Z,65.49
2019-02-23T08:39:54.776Z,65.12
2019-02-23T08:42:22.629Z,65.13
2019-02-23T08:44:50.384Z,65.83
2019-02-23T08:47:18.182Z,65.44
2019-02-23T08:49:45.913Z,64.44
2019-02-23T08:52:15.207Z,64.46
2019-02-23T08:54:43.031Z,64.36
2019-02-23T08:57:10.831Z,63.88
2019-02-23T08:59:38.583Z,63.94
2019-02-23T09:02:06.386Z,64.11
2019-02-23T09:04:34.154Z,64.19
2019-02-23T09:07:01.996Z,64.54
2019-02-23T09:09:29.761Z,64.34
2019-02-23T09:11:57.527Z,64.00
2019-02-23T09:14:25.302Z,63.45
2019-02-23T09:16:53.130Z,63.10
2019-02-23T09:19:20.952Z,62.83
2019-02-23T09:21:48.728Z,61.94
2019-02-23T09:24:16.481Z,61.02
2019-02-23T09:26:44.276Z,60.33
2019-02-23T09:29:12.096Z,60.28
2019-02-23T09:31:39.884Z,59.69
2019-02-23T09:34:07.673Z,59.98
2019-02-23T09:36:35.493Z,58.45
2019-02-23T09:39:04.380Z,58.26
2019-02-23T09:41:32.148Z,57.21
2019-02-23T09:43:59.898Z,58.25
2019-02-23T09:46:27.733Z,58.10
2019-02-23T09:48:56.363Z,56.46
2019-02-23T09:51:24.257Z,56.18
2019-02-23T09:53:52.016Z,54.14
2019-02-23T09:56:19.814Z,54.21
2019-02-23T09:58:47.631Z,53.35
2019-02-23T10:01:15.592Z,51.38
2019-02-23T10:03:43.396Z,49.80
2019-02-23T10:06:11.241Z,49.01
2019-02-23T10:08:39.006Z,46.99
2019-02-23T10:11:07.160Z,45.59
2019-02-23T10:13:34.923Z,43.01
2019-02-23T10:16:02.796Z,40.80
2019-02-23T10:18:30.589Z,40.21
2019-02-23T10:20:58.437Z,38.31
2019-02-23T10:23:26.280Z,37.34
2019-02-23T10:25:54.060Z,39.63
2019-02-23T10:28:21.823Z,41.61
2019-02-23T10:30:49.606Z,39.61
2019-02-23T10:33:17.367Z,35.30
2019-02-23T10:35:45.094Z,34.47
2019-02-23T10:38:12.871Z,32.91
2019-02-23T10:40:40.650Z,32.37
2019-02-23T10:43:08.391Z,32.21
2019-02-23T10:45:36.187Z,32.60
2019-02-23T10:48:05.338Z,34.58
2019-02-23T10:50:33.149Z,37.46
2019-02-23T10:53:00.939Z,40.12
2019-02-23T10:55:28.813Z,41.75
2019-02-23T10:57:56.614Z,42.58
2019-02-23T11:00:27.281Z,42.12
2019-02-23T11:02:55.045Z,41.33
2019-02-23T11:05:23.007Z,40.10
2019-02-23T11:07:50.795Z,39.22
2019-02-23T11:10:18.769Z,38.04
2019-02-23T11:12:46.527Z,39.30
2019-02-23T11:15:14.807Z,38.58
2019-02-23T11:17:42.595Z,37.57
2019-02-23T11:20:10.975Z,32.98
2019-02-23T11:22:38.899Z,29.55
2019-02-23T11:25:07.438Z,27.47
2019-02-23T11:27:35.262Z,25.55
2019-02-23T11:30:03.808Z,23.10
2019-02-23T11:32:31.590Z,21.74
2019-02-23T11:34:59.346Z,19.52
2019-02-23T11:37:27.182Z,18.47
2019-02-23T11:39:54.935Z,17.55
2019-02-23T11:42:22.771Z,18.14
2019-02-23T11:44:50.541Z,18.80
2019-02-23T11:47:18.336Z,18.22
2019-02-23T11:49:46.129Z,18.13
2019-02-23T11:52:13.918Z,17.12
2019-02-23T11:54:44.099Z,16.44
2019-02-23T11:57:11.407Z,17.02
2019-02-23T11:59:39.181Z,16.00
2019-02-23T12:02:06.956Z,17.34
2019-02-23T12:04:34.723Z,16.10
2019-02-23T12:07:02.536Z,15.46
2019-02-23T12:09:30.294Z,15.50
2019-02-23T12:11:58.048Z,14.94
2019-02-23T12:14:26.019Z,13.82
2019-02-23T12:16:53.806Z,14.92
2019-02-23T12:19:21.557Z,14.72
2019-02-23T12:21:49.339Z,15.40
2019-02-23T12:24:17.072Z,17.06
2019-02-23T12:26:44.806Z,15.60
2019-02-23T12:29:12.574Z,17.45
2019-02-23T12:31:40.362Z,17.39
2019-02-23T12:34:08.131Z,18.24
2019-02-23T12:36:35.940Z,20.13
2019-02-23T12:39:04.683Z,22.90
2019-02-23T12:41:32.474Z,24.97
2019-02-23T12:44:00.238Z,26.13
2019-02-23T12:46:27.945Z,27.52
2019-02-23T12:48:55.744Z,28.38
2019-02-23T12:51:23.500Z,29.97
2019-02-23T12:53:51.240Z,30.33
2019-02-23T12:56:18.999Z,30.05
2019-02-23T12:58:48.706Z,30.27
2019-02-23T13:01:16.481Z,30.80
2019-02-23T13:03:44.269Z,31.21
2019-02-23T13:06:12.041Z,32.50
2019-02-23T13:09:17.122Z,31.83
2019-02-23T13:12:15.095Z,30.53
2019-02-23T13:15:15.188Z,28.27
2019-02-23T13:19:06.743Z,28.96
2019-02-23T13:22:22.192Z,30.58
2019-02-23T13:25:34.334Z,32.14
2019-02-23T13:28:59.771Z,28.70
2019-02-23T13:32:09.704Z,22.34
2019-02-23T13:35:37.642Z,20.11
2019-02-23T13:38:49.434Z,18.64
2019-02-23T13:42:00.231Z,16.88
2019-02-23T13:45:18.259Z,14.99
2019-02-23T13:48:36.885Z,16.07
2019-02-23T13:51:50.355Z,18.44
2019-02-23T13:55:18.853Z,19.72
2019-02-23T13:58:19.255Z,19.11
2019-02-23T14:01:36.924Z,18.73
2019-02-23T14:04:57.785Z,20.45
2019-02-23T14:08:43.473Z,21.05
2019-02-23T14:12:01.926Z,21.50
2019-02-23T14:15:49.131Z,20.98
2019-02-23T14:19:10.098Z,21.06
2019-02-23T14:22:46.056Z,22.19
2019-02-23T14:26:15.714Z,23.86
2019-02-23T14:29:34.468Z,23.42
2019-02-23T14:32:56.385Z,24.90
2019-02-23T14:36:24.394Z,26.33
2019-02-23T14:39:50.484Z,28.01
2019-02-23T14:43:17.396Z,29.54
2019-02-23T14:46:57.022Z,29.16
2019-02-23T14:49:58.237Z,28.25
2019-02-23T14:53:19.542Z,29.25
2019-02-23T14:57:02.674Z,28.61
2019-02-23T15:00:20.905Z,29.45
2019-02-23T15:04:00.232Z,29.10
2019-02-23T15:07:49.941Z,28.21
2019-02-23T15:11:12.920Z,28.52
2019-02-23T15:14:48.992Z,28.10
2019-02-23T15:18:00.633Z,28.12
2019-02-23T15:21:18.118Z,29.53
2019-02-23T15:24:47.250Z,31.79
2019-02-23T15:27:53.537Z,33.29
2019-02-23T15:31:29.097Z,34.25
2019-02-23T15:34:54.124Z,34.96
2019-02-23T15:38:33.125Z,35.85
2019-02-23T15:41:47.396Z,36.32
2019-02-23T15:45:01.619Z,36.48
2019-02-23T15:48:34.603Z,36.72
2019-02-23T15:51:02.407Z,37.73
2019-02-23T15:53:30.225Z,38.67
2019-02-23T15:55:58.061Z,39.56
2019-02-23T15:58:25.860Z,40.14
2019-02-23T16:00:53.731Z,40.23
2019-02-23T16:03:21.510Z,41.40
2019-02-23T16:05:49.421Z,41.29
2019-02-23T16:08:17.217Z,41.30
2019-02-23T16:10:45.055Z,41.18
2019-02-23T16:13:12.792Z,41.31
2019-02-23T16:15:40.588Z,41.37
2019-02-23T16:18:08.347Z,41.45
2019-02-23T16:20:36.220Z,41.79
2019-02-23T16:23:04.020Z,42.38
2019-02-23T16:25:38.370Z,42.78
2019-02-23T16:28:01.609Z,43.25
2019-02-23T16:30:29.464Z,44.01
2019-02-23T16:32:57.285Z,46.32
2019-02-23T16:35:25.055Z,47.89
2019-02-23T16:37:52.857Z,49.35
2019-02-23T16:40:20.655Z,49.94
2019-02-23T16:42:48.418Z,50.25
2019-02-23T16:45:16.214Z,50.56
2019-02-23T16:47:43.986Z,51.08
2019-02-23T16:50:11.764Z,51.29
2019-02-23T16:52:39.613Z,51.64
2019-02-23T16:55:07.385Z,51.83
2019-02-23T16:57:35.171Z,52.25
2019-02-23T17:00:03.306Z,52.42
2019-02-23T17:02:31.054Z,52.65
2019-02-23T17:04:58.862Z,52.52
2019-02-23T17:07:26.630Z,52.57
2019-02-23T17:09:54.727Z,52.86
2019-02-23T17:12:22.474Z,53.36
2019-02-23T17:14:50.247Z,53.43
2019-02-23T17:17:18.016Z,53.62
2019-02-23T17:19:45.818Z,54.18
2019-02-23T17:22:13.601Z,54.40
2019-02-23T17:24:41.367Z,54.80
2019-02-23T17:27:09.186Z,55.25
2019-02-23T17:29:37.021Z,55.70
2019-02-23T17:32:06.756Z,55.69
2019-02-23T17:34:34.555Z,56.01
2019-02-23T17:37:02.321Z,57.03
2019-02-23T17:39:30.121Z,57.46
2019-02-23T17:41:57.979Z,57.39
2019-02-23T17:44:25.764Z,57.59
2019-02-23T17:46:53.551Z,57.62
2019-02-23T17:49:21.336Z,57.70
2019-02-23T17:51:49.110Z,57.47
2019-02-23T17:54:16.858Z,57.73
2019-02-23T17:56:44.617Z,57.48
2019-02-23T17:59:12.402Z,57.61
2019-02-23T18:01:40.244Z,57.71
2019-02-23T18:04:08.039Z,57.95
2019-02-23T18:06:35.781Z,57.79
2019-02-23T18:09:04.454Z,57.35
2019-02-23T18:11:32.205Z,57.54
2019-02-23T18:13:59.974Z,57.24
2019-02-23T18:16:27.774Z,57.20
2019-02-23T18:18:57.610Z,56.97
2019-02-23T18:21:25.571Z,56.59
2019-02-23T18:23:53.336Z,56.11
2019-02-23T18:26:22.074Z,55.87
2019-02-23T18:28:49.934Z,55.37
2019-02-23T18:31:17.786Z,55.23
2019-02-23T18:33:45.614Z,55.03
2019-02-23T18:36:13.441Z,55.09
2019-02-23T18:38:41.376Z,54.86
2019-02-23T18:41:09.185Z,55.42
2019-02-23T18:43:37.091Z,54.81
2019-02-23T18:46:05.018Z,54.77
2019-02-23T18:48:32.815Z,55.33
2019-02-23T18:51:00.891Z,55.05
2019-02-23T18:53:28.674Z,54.76
2019-02-23T18:55:56.476Z,54.88
2019-02-23T18:58:24.272Z,54.41
2019-02-23T19:00:52.058Z,54.50
2019-02-23T19:03:19.846Z,54.56
2019-02-23T19:05:49.945Z,54.57
2019-02-23T19:08:17.265Z,54.60
2019-02-23T19:10:45.125Z,54.41
2019-02-23T19:13:12.869Z,54.54
2019-02-23T19:15:40.693Z,54.73
2019-02-23T19:18:08.490Z,54.67
2019-02-23T19:20:36.283Z,54.77
2019-02-23T19:23:04.041Z,54.98
2019-02-23T19:25:31.857Z,55.22
2019-02-23T19:27:59.617Z,55.60
2019-02-23T19:30:27.471Z,55.75
2019-02-23T19:32:55.191Z,55.51
2019-02-23T19:35:22.995Z,55.72
2019-02-23T19:37:50.850Z,55.74
2019-02-23T19:40:18.691Z,55.42
2019-02-23T19:42:46.511Z,55.56
2019-02-23T19:45:14.312Z,55.54
2019-02-23T19:47:42.117Z,55.46
2019-02-23T19:50:14.691Z,55.62
2019-02-23T19:52:42.835Z,55.63
2019-02-23T19:55:12.840Z,55.48
2019-02-23T19:57:40.710Z,55.05
2019-02-23T20:00:08.568Z,54.93
2019-02-23T20:02:36.358Z,55.21
2019-02-23T20:05:04.298Z,55.49
2019-02-23T20:07:32.091Z,55.73
2019-02-23T20:09:59.889Z,55.77
2019-02-23T20:12:28.233Z,55.67
2019-02-23T20:14:56.099Z,55.58
2019-02-23T20:17:23.932Z,55.95
2019-02-23T20:19:51.685Z,55.85
2019-02-23T20:22:19.476Z,55.67
2019-02-23T20:24:48.148Z,56.07
2019-02-23T20:27:15.908Z,56.12
2019-02-23T20:29:43.750Z,56.17
2019-02-23T20:32:11.512Z,56.01
2019-02-23T20:34:39.266Z,56.42
2019-02-23T20:37:07.079Z,56.32
2019-02-23T20:39:34.947Z,56.35
2019-02-23T20:42:02.714Z,55.81
2019-02-23T20:44:30.506Z,55.53
2019-02-23T20:46:58.357Z,55.49
2019-02-23T20:49:26.239Z,55.43
2019-02-23T20:51:54.035Z,55.71
2019-02-23T20:54:24.836Z,55.96
2019-02-23T20:56:52.575Z,55.98
2019-02-23T20:59:20.385Z,55.96
2019-02-23T21:01:48.150Z,56.02
2019-02-23T21:04:15.946Z,55.77
2019-02-23T21:06:43.749Z,55.86
2019-02-23T21:09:11.857Z,55.71
2019-02-23T21:11:39.679Z,55.96
2019-02-23T21:14:07.476Z,56.12
2019-02-23T21:16:35.250Z,56.28
2019-02-23T21:19:03.027Z,56.25
2019-02-23T21:21:30.783Z,56.30
2019-02-23T21:23:58.577Z,56.35
2019-02-23T21:26:26.357Z,56.48
2019-02-23T21:28:54.146Z,56.60
2019-02-23T21:31:21.915Z,56.71
2019-02-23T21:33:49.689Z,57.04
2019-02-23T21:36:17.430Z,57.07
2019-02-23T21:38:45.217Z,57.09
2019-02-23T21:41:13.010Z,57.20
2019-02-23T21:43:40.781Z,57.13
2019-02-23T21:46:08.587Z,56.43
2019-02-23T21:48:36.843Z,56.37
2019-02-23T21:51:04.599Z,55.98
2019-02-23T21:53:32.346Z,55.04
2019-02-23T21:56:00.074Z,54.56
2019-02-23T21:58:27.885Z,55.54
2019-02-23T22:00:55.782Z,56.21
2019-02-23T22:03:23.638Z,56.68
2019-02-23T22:05:51.457Z,57.04
2019-02-23T22:08:19.309Z,56.74
2019-02-23T22:10:47.308Z,56.99
2019-02-23T22:13:15.235Z,56.60
2019-02-23T22:15:43.086Z,55.07
2019-02-23T22:18:10.907Z,55.49
2019-02-23T22:20:38.763Z,56.00
2019-02-23T22:23:06.541Z,56.41
2019-02-23T22:25:34.281Z,56.79
2019-02-23T22:28:02.026Z,56.76
2019-02-23T22:30:29.766Z,57.31
2019-02-23T22:32:57.528Z,57.94
2019-02-23T22:35:25.261Z,58.51
2019-02-23T22:37:53.162Z,58.73
2019-02-23T22:40:20.980Z,58.90
2019-02-23T22:42:48.777Z,58.68
2019-02-23T22:45:16.553Z,57.93
2019-02-23T22:47:44.287Z,58.86
2019-02-23T22:50:12.151Z,58.51
2019-02-23T22:52:39.947Z,58.26
2019-02-23T22:55:07.728Z,58.29
2019-02-23T22:57:40.673Z,58.57
2019-02-23T23:00:07.376Z,58.54
2019-02-23T23:02:35.122Z,58.40
2019-02-23T23:05:03.043Z,58.41
2019-02-23T23:07:30.833Z,58.85
2019-02-23T23:09:58.593Z,58.84
2019-02-23T23:12:26.373Z,58.24
2019-02-23T23:14:54.197Z,57.92
2019-02-23T23:17:21.973Z,58.30
2019-02-23T23:19:49.760Z,58.58
2019-02-23T23:22:19.412Z,58.92
2019-02-23T23:24:47.177Z,58.92
2019-02-23T23:27:14.928Z,59.04
2019-02-23T23:29:42.764Z,59.47
2019-02-23T23:32:10.497Z,59.73
2019-02-23T23:34:38.255Z,59.72
2019-02-23T23:37:06.025Z,59.61
2019-02-23T23:39:33.876Z,59.24
2019-02-23T23:42:01.668Z,59.31
2019-02-23T23:44:29.486Z,59.76
2019-02-23T23:46:57.313Z,59.82
2019-02-23T23:49:25.166Z,59.82
2019-02-23T23:51:52.975Z,59.93
2019-02-23T23:54:20.778Z,60.20
2019-02-23T23:56:48.582Z,60.59
2019-02-23T23:59:16.325Z,60.36
